sensor_id;sensor_type;location;lat;lon;timestamp;temperature;humidity
6018;DHT22;3037;51.068;13.780;2022-11-20T00:01:44;-4.20;99.90
6018;DHT22;3037;51.068;13.780;2022-11-20T00:04:10;-4.20;99.90
6018;DHT22;3037;51.068;13.780;2022-11-20T00:06:37;-4.30;99.90
6018;DHT22;3037;51.068;13.780;2022-11-20T00:09:03;-4.20;99.90
6018;DHT22;3037;51.068;13.780;2022-11-20T00:11:31;-4.30;99.90
6018;DHT22;3037;51.068;13.780;2022-11-20T00:13:59;-4.10;99.90
6018;DHT22;3037;51.068;13.780;2022-11-20T00:16:27;-4.10;99.90
6018;DHT22;3037;51.068;13.780;2022-11-20T00:18:53;-4.10;92.60
6018;DHT22;3037;51.068;13.780;2022-11-20T00:21:20;-4.20;99.90
6018;DHT22;3037;51.068;13.780;2022-11-20T00:23:46;-4.20;99.90
6018;DHT22;3037;51.068;13.780;2022-11-20T00:26:13;-4.30;99.90
6018;DHT22;3037;51.068;13.780;2022-11-20T00:28:41;-4.30;99.90
6018;DHT22;3037;51.068;13.780;2022-11-20T00:31:12;-4.20;99.90
6018;DHT22;3037;51.068;13.780;2022-11-20T00:33:38;-4.20;99.90
6018;DHT22;3037;51.068;13.780;2022-11-20T00:36:06;-4.30;99.90
6018;DHT22;3037;51.068;13.780;2022-11-20T00:38:33;-4.00;99.90
6018;DHT22;3037;51.068;13.780;2022-11-20T00:41:00;-4.00;99.90
6018;DHT22;3037;51.068;13.780;2022-11-20T00:43:27;-4.20;59.70
6018;DHT22;3037;51.068;13.780;2022-11-20T00:45:59;-4.30;99.90
6018;DHT22;3037;51.068;13.780;2022-11-20T00:48:25;-4.30;99.90
6018;DHT22;3037;51.068;13.780;2022-11-20T00:50:51;-4.30;99.90
6018;DHT22;3037;51.068;13.780;2022-11-20T00:53:17;-4.40;99.90
6018;DHT22;3037;51.068;13.780;2022-11-20T00:55:42;-4.40;99.90
6018;DHT22;3037;51.068;13.780;2022-11-20T00:58:08;-4.20;99.90
6018;DHT22;3037;51.068;13.780;2022-11-20T01:00:34;-4.30;99.90
6018;DHT22;3037;51.068;13.780;2022-11-20T01:02:59;-4.40;99.90
6018;DHT22;3037;51.068;13.780;2022-11-20T01:05:25;-4.40;99.90
6018;DHT22;3037;51.068;13.780;2022-11-20T01:07:50;-4.30;99.90
6018;DHT22;3037;51.068;13.780;2022-11-20T01:10:16;-4.30;1.00
6018;DHT22;3037;51.068;13.780;2022-11-20T01:12:42;-4.30;1.00
6018;DHT22;3037;51.068;13.780;2022-11-20T01:15:08;-4.40;1.00
6018;DHT22;3037;51.068;13.780;2022-11-20T01:17:34;-4.40;33.70
6018;DHT22;3037;51.068;13.780;2022-11-20T01:19:59;-4.50;96.00
6018;DHT22;3037;51.068;13.780;2022-11-20T01:22:25;-4.50;99.90
6018;DHT22;3037;51.068;13.780;2022-11-20T01:24:50;-4.40;99.90
6018;DHT22;3037;51.068;13.780;2022-11-20T01:27:16;-4.50;99.90
6018;DHT22;3037;51.068;13.780;2022-11-20T01:29:41;-4.50;99.90
6018;DHT22;3037;51.068;13.780;2022-11-20T01:32:07;-4.50;98.80
6018;DHT22;3037;51.068;13.780;2022-11-20T01:34:32;-4.40;69.40
6018;DHT22;3037;51.068;13.780;2022-11-20T01:36:58;-4.40;25.30
6018;DHT22;3037;51.068;13.780;2022-11-20T01:39:25;-4.40;51.40
6018;DHT22;3037;51.068;13.780;2022-11-20T01:41:52;-4.30;1.00
6018;DHT22;3037;51.068;13.780;2022-11-20T01:44:51;-4.40;1.00
6018;DHT22;3037;51.068;13.780;2022-11-20T01:47:24;-4.40;1.00
6018;DHT22;3037;51.068;13.780;2022-11-20T01:50:15;-4.40;1.00
6018;DHT22;3037;51.068;13.780;2022-11-20T01:53:03;-4.60;1.00
6018;DHT22;3037;51.068;13.780;2022-11-20T01:55:32;-4.80;1.00
6018;DHT22;3037;51.068;13.780;2022-11-20T01:58:00;-5.00;1.00
6018;DHT22;3037;51.068;13.780;2022-11-20T02:00:26;-5.00;1.00
6018;DHT22;3037;51.068;13.780;2022-11-20T02:02:56;-4.80;1.00
6018;DHT22;3037;51.068;13.780;2022-11-20T02:05:38;-4.70;1.00
6018;DHT22;3037;51.068;13.780;2022-11-20T02:08:05;-4.80;1.00
6018;DHT22;3037;51.068;13.780;2022-11-20T02:10:31;-4.80;1.00
6018;DHT22;3037;51.068;13.780;2022-11-20T02:12:57;-5.00;1.00
6018;DHT22;3037;51.068;13.780;2022-11-20T02:15:42;-5.10;1.00
6018;DHT22;3037;51.068;13.780;2022-11-20T02:18:09;-5.00;15.80
6018;DHT22;3037;51.068;13.780;2022-11-20T02:20:35;-5.00;1.00
6018;DHT22;3037;51.068;13.780;2022-11-20T02:23:17;-5.00;35.40
6018;DHT22;3037;51.068;13.780;2022-11-20T02:25:47;-5.00;99.90
6018;DHT22;3037;51.068;13.780;2022-11-20T02:28:12;-4.90;99.90
6018;DHT22;3037;51.068;13.780;2022-11-20T02:30:38;-4.80;99.90
6018;DHT22;3037;51.068;13.780;2022-11-20T02:33:04;-4.80;56.30
6018;DHT22;3037;51.068;13.780;2022-11-20T02:37:56;-4.60;1.00
6018;DHT22;3037;51.068;13.780;2022-11-20T02:40:23;-4.70;1.00
6018;DHT22;3037;51.068;13.780;2022-11-20T02:42:53;-4.80;1.00
6018;DHT22;3037;51.068;13.780;2022-11-20T02:45:18;-4.80;35.60
6018;DHT22;3037;51.068;13.780;2022-11-20T02:47:44;-4.80;68.40
6018;DHT22;3037;51.068;13.780;2022-11-20T02:50:09;-5.00;99.90
6018;DHT22;3037;51.068;13.780;2022-11-20T02:52:35;-4.90;99.90
6018;DHT22;3037;51.068;13.780;2022-11-20T02:55:01;-5.00;99.90
6018;DHT22;3037;51.068;13.780;2022-11-20T02:57:26;-4.90;99.90
6018;DHT22;3037;51.068;13.780;2022-11-20T02:59:52;-4.60;1.80
6018;DHT22;3037;51.068;13.780;2022-11-20T03:02:17;-4.70;1.00
6018;DHT22;3037;51.068;13.780;2022-11-20T03:04:43;-4.60;1.00
6018;DHT22;3037;51.068;13.780;2022-11-20T03:07:09;-4.70;1.00
6018;DHT22;3037;51.068;13.780;2022-11-20T03:09:35;-4.80;1.00
6018;DHT22;3037;51.068;13.780;2022-11-20T03:12:00;-4.80;5.30
6018;DHT22;3037;51.068;13.780;2022-11-20T03:14:26;-4.70;8.20
6018;DHT22;3037;51.068;13.780;2022-11-20T03:16:51;-4.90;32.30
6018;DHT22;3037;51.068;13.780;2022-11-20T03:19:17;-5.00;50.30
6018;DHT22;3037;51.068;13.780;2022-11-20T03:21:43;-5.10;90.50
6018;DHT22;3037;51.068;13.780;2022-11-20T03:24:08;-5.10;72.20
6018;DHT22;3037;51.068;13.780;2022-11-20T03:26:34;-5.00;99.90
6018;DHT22;3037;51.068;13.780;2022-11-20T03:29:01;-5.10;56.30
6018;DHT22;3037;51.068;13.780;2022-11-20T03:31:32;-5.20;99.90
6018;DHT22;3037;51.068;13.780;2022-11-20T03:33:58;-5.10;99.90
6018;DHT22;3037;51.068;13.780;2022-11-20T03:36:24;-5.10;99.90
6018;DHT22;3037;51.068;13.780;2022-11-20T03:38:50;-5.20;99.90
6018;DHT22;3037;51.068;13.780;2022-11-20T03:41:30;-5.00;99.90
6018;DHT22;3037;51.068;13.780;2022-11-20T03:43:59;-4.90;99.90
6018;DHT22;3037;51.068;13.780;2022-11-20T03:46:26;-4.90;99.90
6018;DHT22;3037;51.068;13.780;2022-11-20T03:48:52;-4.80;99.90
6018;DHT22;3037;51.068;13.780;2022-11-20T03:51:20;-5.00;99.90
6018;DHT22;3037;51.068;13.780;2022-11-20T03:53:47;-5.10;99.90
6018;DHT22;3037;51.068;13.780;2022-11-20T03:56:14;-5.20;99.90
6018;DHT22;3037;51.068;13.780;2022-11-20T03:58:40;-5.20;99.90
6018;DHT22;3037;51.068;13.780;2022-11-20T04:01:12;-5.10;99.90
6018;DHT22;3037;51.068;13.780;2022-11-20T04:03:38;-5.20;99.90
6018;DHT22;3037;51.068;13.780;2022-11-20T04:06:06;-5.10;99.90
6018;DHT22;3037;51.068;13.780;2022-11-20T04:08:32;-5.00;31.40
6018;DHT22;3037;51.068;13.780;2022-11-20T04:11:12;-5.00;1.00
6018;DHT22;3037;51.068;13.780;2022-11-20T04:13:38;-5.10;1.00
6018;DHT22;3037;51.068;13.780;2022-11-20T04:16:05;-5.10;1.00
6018;DHT22;3037;51.068;13.780;2022-11-20T04:18:31;-5.10;1.00
6018;DHT22;3037;51.068;13.780;2022-11-20T04:20:57;-5.20;1.00
6018;DHT22;3037;51.068;13.780;2022-11-20T04:23:23;-5.10;1.00
6018;DHT22;3037;51.068;13.780;2022-11-20T04:25:49;-5.20;1.00
6018;DHT22;3037;51.068;13.780;2022-11-20T04:28:14;-5.30;19.00
6018;DHT22;3037;51.068;13.780;2022-11-20T04:30:40;-5.40;65.30
6018;DHT22;3037;51.068;13.780;2022-11-20T04:33:06;-5.40;99.90
6018;DHT22;3037;51.068;13.780;2022-11-20T04:35:34;-5.50;99.90
6018;DHT22;3037;51.068;13.780;2022-11-20T04:37:59;-5.40;99.90
6018;DHT22;3037;51.068;13.780;2022-11-20T04:40:25;-5.50;99.90
6018;DHT22;3037;51.068;13.780;2022-11-20T04:42:51;-5.50;99.90
6018;DHT22;3037;51.068;13.780;2022-11-20T04:45:16;-5.50;99.90
6018;DHT22;3037;51.068;13.780;2022-11-20T04:47:42;-5.30;99.90
6018;DHT22;3037;51.068;13.780;2022-11-20T04:50:08;-5.20;99.90
6018;DHT22;3037;51.068;13.780;2022-11-20T04:52:33;-5.30;93.80
6018;DHT22;3037;51.068;13.780;2022-11-20T04:54:59;-5.50;72.80
6018;DHT22;3037;51.068;13.780;2022-11-20T04:57:24;-5.30;99.90
6018;DHT22;3037;51.068;13.780;2022-11-20T04:59:50;-5.20;78.70
6018;DHT22;3037;51.068;13.780;2022-11-20T05:02:15;-5.00;12.80
6018;DHT22;3037;51.068;13.780;2022-11-20T05:04:41;-5.20;1.00
6018;DHT22;3037;51.068;13.780;2022-11-20T05:07:07;-5.30;1.00
6018;DHT22;3037;51.068;13.780;2022-11-20T05:09:32;-5.40;95.00
6018;DHT22;3037;51.068;13.780;2022-11-20T05:11:58;-5.10;23.50
6018;DHT22;3037;51.068;13.780;2022-11-20T05:14:23;-5.30;1.00
6018;DHT22;3037;51.068;13.780;2022-11-20T05:16:49;-5.10;1.00
6018;DHT22;3037;51.068;13.780;2022-11-20T05:19:14;-5.10;1.00
6018;DHT22;3037;51.068;13.780;2022-11-20T05:21:40;-5.20;1.00
6018;DHT22;3037;51.068;13.780;2022-11-20T05:24:05;-5.20;1.00
6018;DHT22;3037;51.068;13.780;2022-11-20T05:26:32;-5.30;1.00
6018;DHT22;3037;51.068;13.780;2022-11-20T05:28:57;-5.20;1.00
6018;DHT22;3037;51.068;13.780;2022-11-20T05:31:24;-5.30;16.00
6018;DHT22;3037;51.068;13.780;2022-11-20T05:33:50;-5.30;61.80
6018;DHT22;3037;51.068;13.780;2022-11-20T05:36:16;-5.30;96.50
6018;DHT22;3037;51.068;13.780;2022-11-20T05:38:43;-5.30;99.90
6018;DHT22;3037;51.068;13.780;2022-11-20T05:41:11;-5.30;99.90
6018;DHT22;3037;51.068;13.780;2022-11-20T05:43:39;-5.30;99.90
6018;DHT22;3037;51.068;13.780;2022-11-20T05:46:06;-5.30;99.90
6018;DHT22;3037;51.068;13.780;2022-11-20T05:48:32;-5.40;99.90
6018;DHT22;3037;51.068;13.780;2022-11-20T05:50:59;-5.50;99.90
6018;DHT22;3037;51.068;13.780;2022-11-20T05:53:25;-5.40;99.90
6018;DHT22;3037;51.068;13.780;2022-11-20T05:56:02;-5.40;99.90
6018;DHT22;3037;51.068;13.780;2022-11-20T05:58:28;-5.40;99.90
6018;DHT22;3037;51.068;13.780;2022-11-20T06:00:54;-5.50;99.90
6018;DHT22;3037;51.068;13.780;2022-11-20T06:03:20;-5.50;99.90
6018;DHT22;3037;51.068;13.780;2022-11-20T06:05:45;-5.40;99.90
6018;DHT22;3037;51.068;13.780;2022-11-20T06:08:11;-5.40;99.90
6018;DHT22;3037;51.068;13.780;2022-11-20T06:10:36;-5.30;97.10
6018;DHT22;3037;51.068;13.780;2022-11-20T06:13:02;-5.40;45.80
6018;DHT22;3037;51.068;13.780;2022-11-20T06:15:27;-5.40;1.10
6018;DHT22;3037;51.068;13.780;2022-11-20T06:17:54;-5.40;1.00
6018;DHT22;3037;51.068;13.780;2022-11-20T06:20:20;-5.50;21.70
6018;DHT22;3037;51.068;13.780;2022-11-20T06:22:46;-5.20;19.30
6018;DHT22;3037;51.068;13.780;2022-11-20T06:25:11;-5.30;1.00
6018;DHT22;3037;51.068;13.780;2022-11-20T06:27:37;-5.50;1.00
6018;DHT22;3037;51.068;13.780;2022-11-20T06:30:03;-5.40;1.00
6018;DHT22;3037;51.068;13.780;2022-11-20T06:32:29;-5.50;1.00
6018;DHT22;3037;51.068;13.780;2022-11-20T06:34:55;-5.60;42.20
6018;DHT22;3037;51.068;13.780;2022-11-20T06:37:20;-5.00;99.90
6018;DHT22;3037;51.068;13.780;2022-11-20T06:39:46;-4.10;99.90
6018;DHT22;3037;51.068;13.780;2022-11-20T06:42:11;-4.90;1.00
6018;DHT22;3037;51.068;13.780;2022-11-20T06:44:37;-5.00;1.00
6018;DHT22;3037;51.068;13.780;2022-11-20T06:47:02;-5.00;1.00
6018;DHT22;3037;51.068;13.780;2022-11-20T06:49:28;-5.30;1.00
6018;DHT22;3037;51.068;13.780;2022-11-20T06:51:53;-5.40;1.00
6018;DHT22;3037;51.068;13.780;2022-11-20T06:54:19;-5.30;1.00
6018;DHT22;3037;51.068;13.780;2022-11-20T06:56:48;-5.10;1.00
6018;DHT22;3037;51.068;13.780;2022-11-20T06:59:13;-5.00;1.00
6018;DHT22;3037;51.068;13.780;2022-11-20T07:01:39;-5.00;1.00
6018;DHT22;3037;51.068;13.780;2022-11-20T07:04:05;-4.90;1.00
6018;DHT22;3037;51.068;13.780;2022-11-20T07:06:30;-4.70;1.00
6018;DHT22;3037;51.068;13.780;2022-11-20T07:08:56;-4.70;1.00
6018;DHT22;3037;51.068;13.780;2022-11-20T07:11:22;-4.80;24.20
6018;DHT22;3037;51.068;13.780;2022-11-20T07:13:48;-4.80;21.00
6018;DHT22;3037;51.068;13.780;2022-11-20T07:16:13;-4.60;17.40
6018;DHT22;3037;51.068;13.780;2022-11-20T07:18:39;-4.30;1.00
6018;DHT22;3037;51.068;13.780;2022-11-20T07:21:07;-4.20;1.00
6018;DHT22;3037;51.068;13.780;2022-11-20T07:23:33;-4.00;1.00
6018;DHT22;3037;51.068;13.780;2022-11-20T07:26:07;-3.80;1.00
6018;DHT22;3037;51.068;13.780;2022-11-20T07:28:33;-4.00;1.00
6018;DHT22;3037;51.068;13.780;2022-11-20T07:30:59;-3.90;1.00
6018;DHT22;3037;51.068;13.780;2022-11-20T07:33:25;-3.80;1.00
6018;DHT22;3037;51.068;13.780;2022-11-20T07:35:50;-3.90;1.00
6018;DHT22;3037;51.068;13.780;2022-11-20T07:38:16;-3.90;1.00
6018;DHT22;3037;51.068;13.780;2022-11-20T07:40:42;-3.40;1.00
6018;DHT22;3037;51.068;13.780;2022-11-20T07:43:07;-3.30;1.00
6018;DHT22;3037;51.068;13.780;2022-11-20T07:45:33;-2.60;99.90
6018;DHT22;3037;51.068;13.780;2022-11-20T07:47:59;1.10;99.90
6018;DHT22;3037;51.068;13.780;2022-11-20T07:50:24;2.90;1.00
6018;DHT22;3037;51.068;13.780;2022-11-20T07:52:50;4.80;1.00
6018;DHT22;3037;51.068;13.780;2022-11-20T07:55:16;5.80;1.00
6018;DHT22;3037;51.068;13.780;2022-11-20T07:57:41;6.20;1.00
6018;DHT22;3037;51.068;13.780;2022-11-20T08:00:08;6.10;1.00
6018;DHT22;3037;51.068;13.780;2022-11-20T08:02:37;6.70;1.00
6018;DHT22;3037;51.068;13.780;2022-11-20T08:05:04;7.60;1.00
6018;DHT22;3037;51.068;13.780;2022-11-20T08:07:35;8.00;1.00
6018;DHT22;3037;51.068;13.780;2022-11-20T08:10:02;9.30;1.00
6018;DHT22;3037;51.068;13.780;2022-11-20T08:12:27;9.10;1.00
6018;DHT22;3037;51.068;13.780;2022-11-20T08:15:11;8.60;1.00
6018;DHT22;3037;51.068;13.780;2022-11-20T08:17:37;9.40;1.00
6018;DHT22;3037;51.068;13.780;2022-11-20T08:20:02;10.30;1.00
6018;DHT22;3037;51.068;13.780;2022-11-20T08:22:28;11.20;1.00
6018;DHT22;3037;51.068;13.780;2022-11-20T08:24:54;11.90;1.00
6018;DHT22;3037;51.068;13.780;2022-11-20T08:27:19;11.50;1.00
6018;DHT22;3037;51.068;13.780;2022-11-20T08:29:45;11.20;1.00
6018;DHT22;3037;51.068;13.780;2022-11-20T08:32:10;12.10;1.00
6018;DHT22;3037;51.068;13.780;2022-11-20T08:34:36;10.60;1.00
6018;DHT22;3037;51.068;13.780;2022-11-20T08:37:02;11.40;1.00
6018;DHT22;3037;51.068;13.780;2022-11-20T08:39:28;11.90;1.00
6018;DHT22;3037;51.068;13.780;2022-11-20T08:41:53;11.50;1.00
6018;DHT22;3037;51.068;13.780;2022-11-20T08:44:19;12.60;1.00
6018;DHT22;3037;51.068;13.780;2022-11-20T08:46:44;12.70;1.00
6018;DHT22;3037;51.068;13.780;2022-11-20T08:49:12;12.10;1.00
6018;DHT22;3037;51.068;13.780;2022-11-20T08:51:39;11.80;1.00
6018;DHT22;3037;51.068;13.780;2022-11-20T08:54:05;12.00;1.00
6018;DHT22;3037;51.068;13.780;2022-11-20T08:56:31;11.80;1.00
6018;DHT22;3037;51.068;13.780;2022-11-20T08:58:57;12.60;1.00
6018;DHT22;3037;51.068;13.780;2022-11-20T09:01:25;12.60;1.00
6018;DHT22;3037;51.068;13.780;2022-11-20T09:03:51;12.40;1.00
6018;DHT22;3037;51.068;13.780;2022-11-20T09:06:16;13.60;1.00
6018;DHT22;3037;51.068;13.780;2022-11-20T09:08:42;13.80;1.00
6018;DHT22;3037;51.068;13.780;2022-11-20T09:11:08;13.20;1.00
6018;DHT22;3037;51.068;13.780;2022-11-20T09:13:35;14.40;1.00
6018;DHT22;3037;51.068;13.780;2022-11-20T09:16:08;14.20;1.00
6018;DHT22;3037;51.068;13.780;2022-11-20T09:18:34;14.20;1.00
6018;DHT22;3037;51.068;13.780;2022-11-20T09:21:04;13.40;1.00
6018;DHT22;3037;51.068;13.780;2022-11-20T09:23:35;13.30;1.00
6018;DHT22;3037;51.068;13.780;2022-11-20T09:26:06;14.10;1.00
6018;DHT22;3037;51.068;13.780;2022-11-20T09:28:32;14.70;1.00
6018;DHT22;3037;51.068;13.780;2022-11-20T09:30:58;14.10;1.00
6018;DHT22;3037;51.068;13.780;2022-11-20T09:33:24;15.40;1.00
6018;DHT22;3037;51.068;13.780;2022-11-20T09:35:49;15.60;1.00
6018;DHT22;3037;51.068;13.780;2022-11-20T09:38:15;16.70;1.00
6018;DHT22;3037;51.068;13.780;2022-11-20T09:40:47;15.20;1.00
6018;DHT22;3037;51.068;13.780;2022-11-20T09:43:32;14.60;1.00
6018;DHT22;3037;51.068;13.780;2022-11-20T09:46:21;14.20;1.00
6018;DHT22;3037;51.068;13.780;2022-11-20T09:51:58;14.60;1.00
6018;DHT22;3037;51.068;13.780;2022-11-20T09:54:33;14.90;1.00
6018;DHT22;3037;51.068;13.780;2022-11-20T09:57:09;13.70;1.00
6018;DHT22;3037;51.068;13.780;2022-11-20T09:59:41;14.90;1.00
6018;DHT22;3037;51.068;13.780;2022-11-20T10:07:41;14.60;1.00
6018;DHT22;3037;51.068;13.780;2022-11-20T10:10:16;14.80;1.00
6018;DHT22;3037;51.068;13.780;2022-11-20T10:12:57;14.60;1.00
6018;DHT22;3037;51.068;13.780;2022-11-20T10:15:33;14.60;1.00
6018;DHT22;3037;51.068;13.780;2022-11-20T10:24:19;15.50;1.00
6018;DHT22;3037;51.068;13.780;2022-11-20T10:30:21;14.00;1.00
6018;DHT22;3037;51.068;13.780;2022-11-20T10:33:11;14.30;1.00
6018;DHT22;3037;51.068;13.780;2022-11-20T10:35:58;13.80;1.00
6018;DHT22;3037;51.068;13.780;2022-11-20T10:38:34;14.20;1.00
6018;DHT22;3037;51.068;13.780;2022-11-20T10:41:03;14.40;1.00
6018;DHT22;3037;51.068;13.780;2022-11-20T10:44:14;13.40;1.00
6018;DHT22;3037;51.068;13.780;2022-11-20T10:46:44;12.60;1.00
6018;DHT22;3037;51.068;13.780;2022-11-20T10:49:15;13.30;1.00
6018;DHT22;3037;51.068;13.780;2022-11-20T10:52:10;11.90;1.00
6018;DHT22;3037;51.068;13.780;2022-11-20T10:54:47;10.70;1.00
6018;DHT22;3037;51.068;13.780;2022-11-20T11:00:19;9.20;1.00
6018;DHT22;3037;51.068;13.780;2022-11-20T11:02:53;8.60;1.00
6018;DHT22;3037;51.068;13.780;2022-11-20T11:08:15;10.00;1.00
6018;DHT22;3037;51.068;13.780;2022-11-20T11:10:49;8.70;1.00
6018;DHT22;3037;51.068;13.780;2022-11-20T11:13:27;8.40;1.00
6018;DHT22;3037;51.068;13.780;2022-11-20T11:15:53;8.60;1.00
6018;DHT22;3037;51.068;13.780;2022-11-20T11:18:29;8.90;1.00
6018;DHT22;3037;51.068;13.780;2022-11-20T11:20:56;8.90;1.00
6018;DHT22;3037;51.068;13.780;2022-11-20T11:23:34;8.10;1.00
6018;DHT22;3037;51.068;13.780;2022-11-20T11:26:03;7.60;1.00
6018;DHT22;3037;51.068;13.780;2022-11-20T11:28:29;8.00;1.00
6018;DHT22;3037;51.068;13.780;2022-11-20T11:30:55;8.30;1.00
6018;DHT22;3037;51.068;13.780;2022-11-20T11:33:26;7.40;1.00
6018;DHT22;3037;51.068;13.780;2022-11-20T11:36:03;7.20;1.00
6018;DHT22;3037;51.068;13.780;2022-11-20T11:38:39;6.90;1.00
6018;DHT22;3037;51.068;13.780;2022-11-20T11:41:07;6.60;1.00
6018;DHT22;3037;51.068;13.780;2022-11-20T11:43:36;6.30;1.00
6018;DHT22;3037;51.068;13.780;2022-11-20T11:48:58;5.70;1.00
6018;DHT22;3037;51.068;13.780;2022-11-20T11:54:22;6.30;1.00
6018;DHT22;3037;51.068;13.780;2022-11-20T11:56:49;6.20;1.00
6018;DHT22;3037;51.068;13.780;2022-11-20T12:02:37;6.40;1.00
6018;DHT22;3037;51.068;13.780;2022-11-20T12:05:28;6.60;1.00
6018;DHT22;3037;51.068;13.780;2022-11-20T12:08:16;6.40;1.00
6018;DHT22;3037;51.068;13.780;2022-11-20T12:11:06;6.30;1.00
6018;DHT22;3037;51.068;13.780;2022-11-20T12:16:41;6.30;1.00
6018;DHT22;3037;51.068;13.780;2022-11-20T12:19:10;6.20;1.00
6018;DHT22;3037;51.068;13.780;2022-11-20T12:24:38;5.60;1.00
6018;DHT22;3037;51.068;13.780;2022-11-20T12:27:23;5.00;1.00
6018;DHT22;3037;51.068;13.780;2022-11-20T12:35:44;4.70;1.00
6018;DHT22;3037;51.068;13.780;2022-11-20T12:38:38;4.50;1.00
6018;DHT22;3037;51.068;13.780;2022-11-20T12:43:37;3.70;1.00
6018;DHT22;3037;51.068;13.780;2022-11-20T12:51:42;3.80;1.00
6018;DHT22;3037;51.068;13.780;2022-11-20T13:00:20;3.40;1.00
6018;DHT22;3037;51.068;13.780;2022-11-20T13:08:25;3.30;1.00
6018;DHT22;3037;51.068;13.780;2022-11-20T13:18:39;3.30;1.00
6018;DHT22;3037;51.068;13.780;2022-11-20T13:21:18;3.40;1.00
6018;DHT22;3037;51.068;13.780;2022-11-20T13:23:45;3.30;1.00
6018;DHT22;3037;51.068;13.780;2022-11-20T13:26:21;3.10;1.00
6018;DHT22;3037;51.068;13.780;2022-11-20T13:29:09;2.90;1.00
6018;DHT22;3037;51.068;13.780;2022-11-20T13:31:40;2.90;1.00
6018;DHT22;3037;51.068;13.780;2022-11-20T13:34:12;2.80;1.00
6018;DHT22;3037;51.068;13.780;2022-11-20T13:36:52;2.70;1.00
6018;DHT22;3037;51.068;13.780;2022-11-20T13:39:29;2.70;1.00
6018;DHT22;3037;51.068;13.780;2022-11-20T13:42:18;2.50;1.00
6018;DHT22;3037;51.068;13.780;2022-11-20T13:44:50;2.50;1.00
6018;DHT22;3037;51.068;13.780;2022-11-20T13:47:27;2.60;1.00
6018;DHT22;3037;51.068;13.780;2022-11-20T13:49:55;2.50;1.00
6018;DHT22;3037;51.068;13.780;2022-11-20T13:52:55;2.30;1.00
6018;DHT22;3037;51.068;13.780;2022-11-20T13:55:43;2.30;1.00
6018;DHT22;3037;51.068;13.780;2022-11-20T13:58:46;2.30;1.00
6018;DHT22;3037;51.068;13.780;2022-11-20T14:01:17;2.30;1.00
6018;DHT22;3037;51.068;13.780;2022-11-20T14:03:44;2.30;1.00
6018;DHT22;3037;51.068;13.780;2022-11-20T14:06:25;2.50;1.00
6018;DHT22;3037;51.068;13.780;2022-11-20T14:08:52;2.50;1.00
6018;DHT22;3037;51.068;13.780;2022-11-20T14:11:26;2.60;1.00
6018;DHT22;3037;51.068;13.780;2022-11-20T14:14:04;2.70;1.00
6018;DHT22;3037;51.068;13.780;2022-11-20T14:16:32;2.70;1.00
6018;DHT22;3037;51.068;13.780;2022-11-20T14:19:22;2.70;1.00
6018;DHT22;3037;51.068;13.780;2022-11-20T14:21:51;2.60;1.00
6018;DHT22;3037;51.068;13.780;2022-11-20T14:24:22;2.40;1.00
6018;DHT22;3037;51.068;13.780;2022-11-20T14:26:49;2.50;1.00
6018;DHT22;3037;51.068;13.780;2022-11-20T14:29:18;2.70;1.00
6018;DHT22;3037;51.068;13.780;2022-11-20T14:31:45;2.70;1.00
6018;DHT22;3037;51.068;13.780;2022-11-20T14:34:20;2.60;1.00
6018;DHT22;3037;51.068;13.780;2022-11-20T14:36:46;2.60;1.00
6018;DHT22;3037;51.068;13.780;2022-11-20T14:39:20;2.60;1.00
6018;DHT22;3037;51.068;13.780;2022-11-20T14:41:53;2.60;1.00
6018;DHT22;3037;51.068;13.780;2022-11-20T14:44:32;2.40;1.00
6018;DHT22;3037;51.068;13.780;2022-11-20T14:47:00;2.20;1.00
6018;DHT22;3037;51.068;13.780;2022-11-20T14:49:30;2.00;1.00
6018;DHT22;3037;51.068;13.780;2022-11-20T14:52:17;1.80;1.00
6018;DHT22;3037;51.068;13.780;2022-11-20T14:54:45;1.50;1.00
6018;DHT22;3037;51.068;13.780;2022-11-20T14:57:25;1.30;99.90
6018;DHT22;3037;51.068;13.780;2022-11-20T14:59:51;1.20;99.90
6018;DHT22;3037;51.068;13.780;2022-11-20T15:02:29;1.10;99.90
6018;DHT22;3037;51.068;13.780;2022-11-20T15:04:59;1.00;99.90
6018;DHT22;3037;51.068;13.780;2022-11-20T15:07:35;0.90;99.90
6018;DHT22;3037;51.068;13.780;2022-11-20T15:10:04;0.90;99.90
6018;DHT22;3037;51.068;13.780;2022-11-20T15:12:32;0.80;99.90
6018;DHT22;3037;51.068;13.780;2022-11-20T15:14:58;0.70;1.00
6018;DHT22;3037;51.068;13.780;2022-11-20T15:17:24;0.60;99.90
6018;DHT22;3037;51.068;13.780;2022-11-20T15:19:50;0.60;1.00
6018;DHT22;3037;51.068;13.780;2022-11-20T15:22:16;0.40;1.00
6018;DHT22;3037;51.068;13.780;2022-11-20T15:24:42;0.40;1.00
6018;DHT22;3037;51.068;13.780;2022-11-20T15:27:08;0.40;1.00
6018;DHT22;3037;51.068;13.780;2022-11-20T15:29:34;0.30;1.00
6018;DHT22;3037;51.068;13.780;2022-11-20T15:32:00;0.70;1.00
6018;DHT22;3037;51.068;13.780;2022-11-20T15:34:27;0.30;1.00
6018;DHT22;3037;51.068;13.780;2022-11-20T15:36:52;0.30;1.00
6018;DHT22;3037;51.068;13.780;2022-11-20T15:39:20;0.20;1.00
6018;DHT22;3037;51.068;13.780;2022-11-20T15:41:46;0.20;1.00
6018;DHT22;3037;51.068;13.780;2022-11-20T15:44:11;0.20;1.00
6018;DHT22;3037;51.068;13.780;2022-11-20T15:46:40;0.20;1.00
6018;DHT22;3037;51.068;13.780;2022-11-20T15:49:12;0.00;1.00
6018;DHT22;3037;51.068;13.780;2022-11-20T15:51:42;0.00;99.90
6018;DHT22;3037;51.068;13.780;2022-11-20T15:54:16;0.00;1.00
6018;DHT22;3037;51.068;13.780;2022-11-20T15:56:45;0.00;1.00
6018;DHT22;3037;51.068;13.780;2022-11-20T15:59:11;-0.10;99.90
6018;DHT22;3037;51.068;13.780;2022-11-20T16:01:37;-0.10;99.90
6018;DHT22;3037;51.068;13.780;2022-11-20T16:04:05;-0.10;99.90
6018;DHT22;3037;51.068;13.780;2022-11-20T16:06:33;-0.20;99.90
6018;DHT22;3037;51.068;13.780;2022-11-20T16:08:59;-0.20;99.90
6018;DHT22;3037;51.068;13.780;2022-11-20T16:11:25;-0.20;99.90
6018;DHT22;3037;51.068;13.780;2022-11-20T16:13:50;-0.30;99.90
6018;DHT22;3037;51.068;13.780;2022-11-20T16:16:36;-0.40;99.90
6018;DHT22;3037;51.068;13.780;2022-11-20T16:19:03;-0.50;1.00
6018;DHT22;3037;51.068;13.780;2022-11-20T16:21:29;-0.60;1.00
6018;DHT22;3037;51.068;13.780;2022-11-20T16:24:02;-0.70;1.00
6018;DHT22;3037;51.068;13.780;2022-11-20T16:26:28;-0.70;99.90
6018;DHT22;3037;51.068;13.780;2022-11-20T16:28:54;-0.80;1.00
6018;DHT22;3037;51.068;13.780;2022-11-20T16:31:20;-0.80;1.00
6018;DHT22;3037;51.068;13.780;2022-11-20T16:33:54;-0.80;1.00
6018;DHT22;3037;51.068;13.780;2022-11-20T16:36:21;-0.80;1.00
6018;DHT22;3037;51.068;13.780;2022-11-20T16:38:52;-0.80;1.00
6018;DHT22;3037;51.068;13.780;2022-11-20T16:41:17;-0.70;1.00
6018;DHT22;3037;51.068;13.780;2022-11-20T16:43:51;-0.70;99.90
6018;DHT22;3037;51.068;13.780;2022-11-20T16:46:19;-0.70;99.90
6018;DHT22;3037;51.068;13.780;2022-11-20T16:48:45;-0.60;99.90
6018;DHT22;3037;51.068;13.780;2022-11-20T16:51:12;-0.70;1.00
6018;DHT22;3037;51.068;13.780;2022-11-20T16:53:38;-0.80;1.00
6018;DHT22;3037;51.068;13.780;2022-11-20T16:56:12;-0.70;1.00
6018;DHT22;3037;51.068;13.780;2022-11-20T16:58:38;-0.70;1.00
6018;DHT22;3037;51.068;13.780;2022-11-20T17:01:08;-0.70;1.00
6018;DHT22;3037;51.068;13.780;2022-11-20T17:03:42;-0.70;1.00
6018;DHT22;3037;51.068;13.780;2022-11-20T17:06:16;-0.90;27.20
6018;DHT22;3037;51.068;13.780;2022-11-20T17:08:43;-0.90;1.00
6018;DHT22;3037;51.068;13.780;2022-11-20T17:11:11;0.10;79.20
6018;DHT22;3037;51.068;13.780;2022-11-20T17:13:38;-0.50;99.90
6018;DHT22;3037;51.068;13.780;2022-11-20T17:16:06;-0.80;1.00
6018;DHT22;3037;51.068;13.780;2022-11-20T17:18:32;-1.00;1.00
6018;DHT22;3037;51.068;13.780;2022-11-20T17:20:58;-1.10;1.00
6018;DHT22;3037;51.068;13.780;2022-11-20T17:23:29;-1.20;1.00
6018;DHT22;3037;51.068;13.780;2022-11-20T17:28:30;-1.30;1.00
6018;DHT22;3037;51.068;13.780;2022-11-20T17:31:01;-1.30;99.90